sensor_id;sensor_type;location;lat;lon;timestamp;P1;durP1;ratioP1;P2;durP2;ratioP2
16254;SDS011;8235;52.198;9.904;2023-02-28T00:00:16;5.97;;;4.23;;
16254;SDS011;8235;52.198;9.904;2023-02-28T00:02:43;7.23;;;3.87;;
16254;SDS011;8235;52.198;9.904;2023-02-28T00:05:11;5.67;;;4.60;;
16254;SDS011;8235;52.198;9.904;2023-02-28T00:07:39;6.53;;;3.83;;
16254;SDS011;8235;52.198;9.904;2023-02-28T00:10:09;4.63;;;3.33;;
16254;SDS011;8235;52.198;9.904;2023-02-28T00:12:37;5.17;;;3.60;;
16254;SDS011;8235;52.198;9.904;2023-02-28T00:15:05;6.67;;;4.83;;
16254;SDS011;8235;52.198;9.904;2023-02-28T00:17:32;6.03;;;4.30;;
16254;SDS011;8235;52.198;9.904;2023-02-28T00:19:59;7.53;;;4.10;;
16254;SDS011;8235;52.198;9.904;2023-02-28T00:22:35;5.70;;;3.93;;
16254;SDS011;8235;52.198;9.904;2023-02-28T00:25:02;7.77;;;4.40;;
16254;SDS011;8235;52.198;9.904;2023-02-28T00:27:30;7.77;;;4.90;;
16254;SDS011;8235;52.198;9.904;2023-02-28T00:29:57;6.60;;;4.77;;
16254;SDS011;8235;52.198;9.904;2023-02-28T00:32:23;8.03;;;4.40;;
16254;SDS011;8235;52.198;9.904;2023-02-28T00:34:50;6.33;;;4.80;;
16254;SDS011;8235;52.198;9.904;2023-02-28T00:37:18;6.73;;;3.70;;
16254;SDS011;8235;52.198;9.904;2023-02-28T00:39:44;4.37;;;3.10;;
16254;SDS011;8235;52.198;9.904;2023-02-28T00:42:11;5.93;;;3.70;;
16254;SDS011;8235;52.198;9.904;2023-02-28T00:44:39;5.17;;;4.07;;
16254;SDS011;8235;52.198;9.904;2023-02-28T00:47:05;9.03;;;5.07;;
16254;SDS011;8235;52.198;9.904;2023-02-28T00:49:32;5.00;;;3.13;;
16254;SDS011;8235;52.198;9.904;2023-02-28T00:51:58;4.97;;;3.10;;
16254;SDS011;8235;52.198;9.904;2023-02-28T00:54:25;4.17;;;2.47;;
16254;SDS011;8235;52.198;9.904;2023-02-28T00:56:51;2.53;;;2.27;;
16254;SDS011;8235;52.198;9.904;2023-02-28T00:59:18;3.80;;;2.60;;
16254;SDS011;8235;52.198;9.904;2023-02-28T01:01:46;5.50;;;3.20;;
16254;SDS011;8235;52.198;9.904;2023-02-28T01:04:12;3.90;;;3.03;;
16254;SDS011;8235;52.198;9.904;2023-02-28T01:06:39;3.80;;;3.20;;
16254;SDS011;8235;52.198;9.904;2023-02-28T01:09:06;7.10;;;3.87;;
16254;SDS011;8235;52.198;9.904;2023-02-28T01:11:33;8.13;;;4.37;;
16254;SDS011;8235;52.198;9.904;2023-02-28T01:14:01;6.50;;;3.90;;
16254;SDS011;8235;52.198;9.904;2023-02-28T01:16:28;4.20;;;3.10;;
16254;SDS011;8235;52.198;9.904;2023-02-28T01:18:57;3.43;;;2.70;;
16254;SDS011;8235;52.198;9.904;2023-02-28T01:21:24;4.37;;;3.03;;
16254;SDS011;8235;52.198;9.904;2023-02-28T01:23:50;5.17;;;3.67;;
16254;SDS011;8235;52.198;9.904;2023-02-28T01:26:18;5.10;;;3.33;;
16254;SDS011;8235;52.198;9.904;2023-02-28T01:28:46;5.40;;;3.60;;
16254;SDS011;8235;52.198;9.904;2023-02-28T01:31:13;7.30;;;3.90;;
16254;SDS011;8235;52.198;9.904;2023-02-28T01:33:39;5.13;;;3.73;;
16254;SDS011;8235;52.198;9.904;2023-02-28T01:36:09;5.37;;;3.53;;
16254;SDS011;8235;52.198;9.904;2023-02-28T01:38:37;5.57;;;3.87;;
16254;SDS011;8235;52.198;9.904;2023-02-28T01:41:03;4.80;;;3.67;;
16254;SDS011;8235;52.198;9.904;2023-02-28T01:43:31;5.50;;;3.60;;
16254;SDS011;8235;52.198;9.904;2023-02-28T01:46:17;4.50;;;4.00;;
16254;SDS011;8235;52.198;9.904;2023-02-28T01:48:45;5.13;;;3.57;;
16254;SDS011;8235;52.198;9.904;2023-02-28T01:51:18;4.83;;;3.40;;
16254;SDS011;8235;52.198;9.904;2023-02-28T01:53:49;5.50;;;3.37;;
16254;SDS011;8235;52.198;9.904;2023-02-28T01:56:20;4.13;;;3.23;;
16254;SDS011;8235;52.198;9.904;2023-02-28T01:58:49;4.20;;;3.50;;
16254;SDS011;8235;52.198;9.904;2023-02-28T02:01:17;5.57;;;3.60;;
16254;SDS011;8235;52.198;9.904;2023-02-28T02:03:46;4.57;;;3.63;;
16254;SDS011;8235;52.198;9.904;2023-02-28T02:06:18;5.73;;;4.00;;
16254;SDS011;8235;52.198;9.904;2023-02-28T02:08:45;4.43;;;3.80;;
16254;SDS011;8235;52.198;9.904;2023-02-28T02:11:11;7.23;;;3.80;;
16254;SDS011;8235;52.198;9.904;2023-02-28T02:13:48;5.87;;;3.73;;
16254;SDS011;8235;52.198;9.904;2023-02-28T02:16:32;5.27;;;4.07;;
16254;SDS011;8235;52.198;9.904;2023-02-28T02:19:11;5.53;;;3.87;;
16254;SDS011;8235;52.198;9.904;2023-02-28T02:22:02;4.50;;;3.50;;
16254;SDS011;8235;52.198;9.904;2023-02-28T02:30:42;4.67;;;3.50;;
16254;SDS011;8235;52.198;9.904;2023-02-28T02:36:23;5.03;;;3.43;;
16254;SDS011;8235;52.198;9.904;2023-02-28T02:38:53;5.53;;;3.80;;
16254;SDS011;8235;52.198;9.904;2023-02-28T02:41:27;4.50;;;3.50;;
16254;SDS011;8235;52.198;9.904;2023-02-28T02:44:02;5.80;;;3.67;;
16254;SDS011;8235;52.198;9.904;2023-02-28T02:46:33;4.80;;;3.70;;
16254;SDS011;8235;52.198;9.904;2023-02-28T02:49:05;7.37;;;4.17;;
16254;SDS011;8235;52.198;9.904;2023-02-28T02:51:36;4.80;;;2.93;;
16254;SDS011;8235;52.198;9.904;2023-02-28T02:54:07;4.90;;;3.80;;
16254;SDS011;8235;52.198;9.904;2023-02-28T02:56:37;4.13;;;3.70;;
16254;SDS011;8235;52.198;9.904;2023-02-28T02:59:07;6.90;;;4.00;;
16254;SDS011;8235;52.198;9.904;2023-02-28T03:01:37;4.13;;;3.43;;
16254;SDS011;8235;52.198;9.904;2023-02-28T03:04:09;4.40;;;3.40;;
16254;SDS011;8235;52.198;9.904;2023-02-28T03:06:39;3.93;;;3.53;;
16254;SDS011;8235;52.198;9.904;2023-02-28T03:09:05;4.30;;;2.90;;
16254;SDS011;8235;52.198;9.904;2023-02-28T03:11:32;4.20;;;3.20;;
16254;SDS011;8235;52.198;9.904;2023-02-28T03:17:00;5.37;;;3.70;;
16254;SDS011;8235;52.198;9.904;2023-02-28T03:19:44;5.30;;;3.87;;
16254;SDS011;8235;52.198;9.904;2023-02-28T03:22:23;6.83;;;4.33;;
16254;SDS011;8235;52.198;9.904;2023-02-28T03:25:03;6.57;;;3.87;;
16254;SDS011;8235;52.198;9.904;2023-02-28T03:27:36;5.20;;;3.93;;
16254;SDS011;8235;52.198;9.904;2023-02-28T03:30:09;5.30;;;3.47;;
16254;SDS011;8235;52.198;9.904;2023-02-28T03:32:42;4.23;;;3.40;;
16254;SDS011;8235;52.198;9.904;2023-02-28T03:35:20;4.77;;;3.90;;
16254;SDS011;8235;52.198;9.904;2023-02-28T03:37:52;5.63;;;3.73;;
16254;SDS011;8235;52.198;9.904;2023-02-28T03:40:23;6.93;;;4.00;;
16254;SDS011;8235;52.198;9.904;2023-02-28T03:42:56;4.03;;;3.50;;
16254;SDS011;8235;52.198;9.904;2023-02-28T03:45:28;5.40;;;3.37;;
16254;SDS011;8235;52.198;9.904;2023-02-28T03:47:57;4.33;;;3.10;;
16254;SDS011;8235;52.198;9.904;2023-02-28T03:50:29;5.67;;;3.60;;
16254;SDS011;8235;52.198;9.904;2023-02-28T03:53:04;4.03;;;3.23;;
16254;SDS011;8235;52.198;9.904;2023-02-28T03:55:37;6.17;;;3.73;;
16254;SDS011;8235;52.198;9.904;2023-02-28T03:58:11;5.57;;;3.00;;
16254;SDS011;8235;52.198;9.904;2023-02-28T04:00:43;4.10;;;2.90;;
16254;SDS011;8235;52.198;9.904;2023-02-28T04:03:12;3.20;;;2.70;;
16254;SDS011;8235;52.198;9.904;2023-02-28T04:05:45;5.60;;;2.93;;
16254;SDS011;8235;52.198;9.904;2023-02-28T04:08:16;8.37;;;3.90;;
16254;SDS011;8235;52.198;9.904;2023-02-28T04:10:42;3.70;;;2.80;;
16254;SDS011;8235;52.198;9.904;2023-02-28T04:13:14;6.20;;;3.30;;
16254;SDS011;8235;52.198;9.904;2023-02-28T04:15:40;4.63;;;3.00;;
16254;SDS011;8235;52.198;9.904;2023-02-28T04:18:07;4.27;;;3.10;;
16254;SDS011;8235;52.198;9.904;2023-02-28T04:20:33;4.77;;;3.13;;
16254;SDS011;8235;52.198;9.904;2023-02-28T04:23:00;4.70;;;2.97;;
16254;SDS011;8235;52.198;9.904;2023-02-28T04:25:28;7.13;;;3.43;;
16254;SDS011;8235;52.198;9.904;2023-02-28T04:27:54;5.53;;;3.47;;
16254;SDS011;8235;52.198;9.904;2023-02-28T04:30:20;5.70;;;3.73;;
16254;SDS011;8235;52.198;9.904;2023-02-28T04:32:47;4.10;;;2.80;;
16254;SDS011;8235;52.198;9.904;2023-02-28T04:35:13;5.30;;;3.40;;
16254;SDS011;8235;52.198;9.904;2023-02-28T04:37:40;4.70;;;3.17;;
16254;SDS011;8235;52.198;9.904;2023-02-28T04:40:07;4.43;;;3.00;;
16254;SDS011;8235;52.198;9.904;2023-02-28T04:42:36;3.83;;;2.93;;
16254;SDS011;8235;52.198;9.904;2023-02-28T04:45:03;4.23;;;3.13;;
16254;SDS011;8235;52.198;9.904;2023-02-28T04:47:30;6.00;;;3.10;;
16254;SDS011;8235;52.198;9.904;2023-02-28T04:49:56;4.47;;;2.90;;
16254;SDS011;8235;52.198;9.904;2023-02-28T04:52:26;5.40;;;2.83;;
16254;SDS011;8235;52.198;9.904;2023-02-28T04:54:53;3.33;;;2.90;;
16254;SDS011;8235;52.198;9.904;2023-02-28T04:57:20;4.97;;;3.17;;
16254;SDS011;8235;52.198;9.904;2023-02-28T04:59:47;4.00;;;3.03;;
16254;SDS011;8235;52.198;9.904;2023-02-28T05:02:14;6.27;;;3.40;;
16254;SDS011;8235;52.198;9.904;2023-02-28T05:04:40;4.33;;;3.00;;
16254;SDS011;8235;52.198;9.904;2023-02-28T05:07:07;5.93;;;3.10;;
16254;SDS011;8235;52.198;9.904;2023-02-28T05:09:34;3.70;;;2.83;;
16254;SDS011;8235;52.198;9.904;2023-02-28T05:12:00;5.67;;;3.10;;
16254;SDS011;8235;52.198;9.904;2023-02-28T05:14:27;5.90;;;3.23;;
16254;SDS011;8235;52.198;9.904;2023-02-28T05:16:55;4.77;;;3.53;;
16254;SDS011;8235;52.198;9.904;2023-02-28T05:19:21;4.47;;;2.77;;
16254;SDS011;8235;52.198;9.904;2023-02-28T05:21:49;4.53;;;3.17;;
16254;SDS011;8235;52.198;9.904;2023-02-28T05:24:17;4.90;;;2.70;;
16254;SDS011;8235;52.198;9.904;2023-02-28T05:26:50;5.20;;;3.17;;
16254;SDS011;8235;52.198;9.904;2023-02-28T05:29:18;4.60;;;3.00;;
16254;SDS011;8235;52.198;9.904;2023-02-28T05:31:44;4.97;;;3.33;;
16254;SDS011;8235;52.198;9.904;2023-02-28T05:34:12;5.37;;;2.87;;
16254;SDS011;8235;52.198;9.904;2023-02-28T05:36:41;4.03;;;2.97;;
16254;SDS011;8235;52.198;9.904;2023-02-28T05:39:07;4.63;;;3.07;;
16254;SDS011;8235;52.198;9.904;2023-02-28T05:41:37;3.50;;;3.07;;
16254;SDS011;8235;52.198;9.904;2023-02-28T05:44:05;5.17;;;3.40;;
16254;SDS011;8235;52.198;9.904;2023-02-28T05:46:31;5.13;;;3.23;;
16254;SDS011;8235;52.198;9.904;2023-02-28T05:48:58;5.37;;;4.10;;
16254;SDS011;8235;52.198;9.904;2023-02-28T05:51:27;4.90;;;3.50;;
16254;SDS011;8235;52.198;9.904;2023-02-28T05:53:53;5.17;;;3.77;;
16254;SDS011;8235;52.198;9.904;2023-02-28T05:56:20;6.47;;;3.80;;
16254;SDS011;8235;52.198;9.904;2023-02-28T05:58:46;4.70;;;3.80;;
16254;SDS011;8235;52.198;9.904;2023-02-28T06:01:20;4.87;;;3.97;;
16254;SDS011;8235;52.198;9.904;2023-02-28T06:03:48;6.03;;;4.03;;
16254;SDS011;8235;52.198;9.904;2023-02-28T06:06:15;5.37;;;4.50;;
16254;SDS011;8235;52.198;9.904;2023-02-28T06:08:43;6.67;;;4.37;;
16254;SDS011;8235;52.198;9.904;2023-02-28T06:11:10;7.17;;;4.37;;
16254;SDS011;8235;52.198;9.904;2023-02-28T06:13:37;6.87;;;4.13;;
16254;SDS011;8235;52.198;9.904;2023-02-28T06:16:04;5.00;;;4.37;;
16254;SDS011;8235;52.198;9.904;2023-02-28T06:18:31;5.47;;;4.27;;
16254;SDS011;8235;52.198;9.904;2023-02-28T06:20:58;5.67;;;4.07;;
16254;SDS011;8235;52.198;9.904;2023-02-28T06:23:24;8.73;;;4.13;;
16254;SDS011;8235;52.198;9.904;2023-02-28T06:25:52;5.90;;;3.83;;
16254;SDS011;8235;52.198;9.904;2023-02-28T06:28:22;4.87;;;4.10;;
16254;SDS011;8235;52.198;9.904;2023-02-28T06:30:49;5.83;;;4.10;;
16254;SDS011;8235;52.198;9.904;2023-02-28T06:33:15;7.30;;;4.20;;
16254;SDS011;8235;52.198;9.904;2023-02-28T06:35:43;7.67;;;4.57;;
16254;SDS011;8235;52.198;9.904;2023-02-28T06:38:10;7.90;;;4.17;;
16254;SDS011;8235;52.198;9.904;2023-02-28T06:40:36;6.60;;;4.30;;
16254;SDS011;8235;52.198;9.904;2023-02-28T06:43:04;6.87;;;5.10;;
16254;SDS011;8235;52.198;9.904;2023-02-28T06:45:31;10.00;;;6.27;;
16254;SDS011;8235;52.198;9.904;2023-02-28T06:47:57;6.60;;;5.50;;
16254;SDS011;8235;52.198;9.904;2023-02-28T06:50:25;8.10;;;5.60;;
16254;SDS011;8235;52.198;9.904;2023-02-28T06:52:54;9.33;;;6.33;;
16254;SDS011;8235;52.198;9.904;2023-02-28T06:55:20;8.50;;;5.90;;
16254;SDS011;8235;52.198;9.904;2023-02-28T06:57:47;10.13;;;5.93;;
16254;SDS011;8235;52.198;9.904;2023-02-28T07:00:17;10.27;;;6.07;;
16254;SDS011;8235;52.198;9.904;2023-02-28T07:02:44;7.30;;;5.93;;
16254;SDS011;8235;52.198;9.904;2023-02-28T07:05:10;11.20;;;6.60;;
16254;SDS011;8235;52.198;9.904;2023-02-28T07:07:37;7.93;;;6.77;;
16254;SDS011;8235;52.198;9.904;2023-02-28T07:10:06;9.37;;;6.60;;
16254;SDS011;8235;52.198;9.904;2023-02-28T07:12:32;7.33;;;5.10;;
16254;SDS011;8235;52.198;9.904;2023-02-28T07:14:59;7.17;;;5.20;;
16254;SDS011;8235;52.198;9.904;2023-02-28T07:17:27;6.27;;;5.33;;
16254;SDS011;8235;52.198;9.904;2023-02-28T07:19:53;12.87;;;6.77;;
16254;SDS011;8235;52.198;9.904;2023-02-28T07:22:20;8.67;;;5.00;;
16254;SDS011;8235;52.198;9.904;2023-02-28T07:24:46;7.50;;;5.83;;
16254;SDS011;8235;52.198;9.904;2023-02-28T07:27:13;9.83;;;6.17;;
16254;SDS011;8235;52.198;9.904;2023-02-28T07:29:50;9.87;;;6.57;;
16254;SDS011;8235;52.198;9.904;2023-02-28T07:32:17;11.50;;;7.70;;
16254;SDS011;8235;52.198;9.904;2023-02-28T07:34:45;13.10;;;7.70;;
16254;SDS011;8235;52.198;9.904;2023-02-28T07:37:12;11.20;;;6.57;;
16254;SDS011;8235;52.198;9.904;2023-02-28T07:39:39;8.57;;;6.23;;
16254;SDS011;8235;52.198;9.904;2023-02-28T07:42:07;9.07;;;6.10;;
16254;SDS011;8235;52.198;9.904;2023-02-28T07:44:35;10.40;;;6.93;;
16254;SDS011;8235;52.198;9.904;2023-02-28T07:47:05;10.50;;;6.67;;
16254;SDS011;8235;52.198;9.904;2023-02-28T07:49:32;10.83;;;6.90;;
16254;SDS011;8235;52.198;9.904;2023-02-28T07:52:00;11.13;;;7.43;;
16254;SDS011;8235;52.198;9.904;2023-02-28T07:54:26;9.97;;;7.23;;
16254;SDS011;8235;52.198;9.904;2023-02-28T07:56:52;13.67;;;7.63;;
16254;SDS011;8235;52.198;9.904;2023-02-28T07:59:19;13.40;;;7.97;;
16254;SDS011;8235;52.198;9.904;2023-02-28T08:01:45;18.87;;;11.17;;
16254;SDS011;8235;52.198;9.904;2023-02-28T08:04:14;10.17;;;6.70;;
16254;SDS011;8235;52.198;9.904;2023-02-28T08:06:41;9.80;;;5.80;;
16254;SDS011;8235;52.198;9.904;2023-02-28T08:09:09;11.50;;;6.70;;
16254;SDS011;8235;52.198;9.904;2023-02-28T08:11:35;8.60;;;6.40;;
16254;SDS011;8235;52.198;9.904;2023-02-28T08:14:02;7.77;;;6.03;;
16254;SDS011;8235;52.198;9.904;2023-02-28T08:16:29;7.47;;;6.20;;
16254;SDS011;8235;52.198;9.904;2023-02-28T08:18:55;6.90;;;5.77;;
16254;SDS011;8235;52.198;9.904;2023-02-28T08:21:21;9.90;;;6.80;;
16254;SDS011;8235;52.198;9.904;2023-02-28T08:23:48;9.50;;;6.13;;
16254;SDS011;8235;52.198;9.904;2023-02-28T08:26:17;13.10;;;6.13;;
16254;SDS011;8235;52.198;9.904;2023-02-28T08:28:44;6.43;;;5.47;;
16254;SDS011;8235;52.198;9.904;2023-02-28T08:31:13;7.83;;;6.30;;
16254;SDS011;8235;52.198;9.904;2023-02-28T08:33:41;8.60;;;6.00;;
16254;SDS011;8235;52.198;9.904;2023-02-28T08:36:09;7.60;;;5.63;;
16254;SDS011;8235;52.198;9.904;2023-02-28T08:38:36;10.23;;;6.30;;
16254;SDS011;8235;52.198;9.904;2023-02-28T08:41:04;7.70;;;5.47;;
16254;SDS011;8235;52.198;9.904;2023-02-28T08:43:33;9.80;;;6.07;;
16254;SDS011;8235;52.198;9.904;2023-02-28T08:46:00;8.33;;;5.60;;
16254;SDS011;8235;52.198;9.904;2023-02-28T08:48:28;6.90;;;4.30;;
16254;SDS011;8235;52.198;9.904;2023-02-28T08:50:56;5.50;;;3.50;;
16254;SDS011;8235;52.198;9.904;2023-02-28T08:53:23;4.70;;;3.50;;
16254;SDS011;8235;52.198;9.904;2023-02-28T08:55:55;5.80;;;3.93;;
16254;SDS011;8235;52.198;9.904;2023-02-28T08:58:22;5.03;;;3.47;;
16254;SDS011;8235;52.198;9.904;2023-02-28T09:00:51;8.43;;;3.93;;
16254;SDS011;8235;52.198;9.904;2023-02-28T09:03:18;4.93;;;3.40;;
16254;SDS011;8235;52.198;9.904;2023-02-28T09:05:51;6.80;;;3.67;;
16254;SDS011;8235;52.198;9.904;2023-02-28T09:08:18;4.87;;;3.63;;
16254;SDS011;8235;52.198;9.904;2023-02-28T09:10:44;4.50;;;3.57;;
16254;SDS011;8235;52.198;9.904;2023-02-28T09:13:11;4.17;;;3.30;;
16254;SDS011;8235;52.198;9.904;2023-02-28T09:15:37;3.90;;;3.50;;
16254;SDS011;8235;52.198;9.904;2023-02-28T09:18:05;5.50;;;3.47;;
16254;SDS011;8235;52.198;9.904;2023-02-28T09:20:32;4.57;;;3.40;;
16254;SDS011;8235;52.198;9.904;2023-02-28T09:22:58;4.03;;;3.27;;
16254;SDS011;8235;52.198;9.904;2023-02-28T09:25:25;5.30;;;2.83;;
16254;SDS011;8235;52.198;9.904;2023-02-28T09:27:51;5.83;;;3.23;;
16254;SDS011;8235;52.198;9.904;2023-02-28T09:30:18;85.87;;;11.57;;
16254;SDS011;8235;52.198;9.904;2023-02-28T09:32:44;5.43;;;3.40;;
16254;SDS011;8235;52.198;9.904;2023-02-28T09:35:18;3.53;;;2.70;;
16254;SDS011;8235;52.198;9.904;2023-02-28T09:37:46;3.87;;;2.70;;
16254;SDS011;8235;52.198;9.904;2023-02-28T09:40:13;4.03;;;2.83;;
16254;SDS011;8235;52.198;9.904;2023-02-28T09:42:42;4.37;;;2.73;;
16254;SDS011;8235;52.198;9.904;2023-02-28T09:45:13;3.97;;;2.80;;
16254;SDS011;8235;52.198;9.904;2023-02-28T09:47:48;4.47;;;2.50;;
16254;SDS011;8235;52.198;9.904;2023-02-28T09:50:22;5.57;;;2.37;;
16254;SDS011;8235;52.198;9.904;2023-02-28T09:52:57;4.13;;;2.40;;
16254;SDS011;8235;52.198;9.904;2023-02-28T09:55:27;2.47;;;2.27;;
16254;SDS011;8235;52.198;9.904;2023-02-28T09:57:56;2.27;;;2.00;;
16254;SDS011;8235;52.198;9.904;2023-02-28T10:00:27;2.10;;;1.83;;
16254;SDS011;8235;52.198;9.904;2023-02-28T10:03:04;2.27;;;1.70;;
16254;SDS011;8235;52.198;9.904;2023-02-28T10:05:43;3.50;;;2.10;;
16254;SDS011;8235;52.198;9.904;2023-02-28T10:08:19;5.47;;;2.30;;
16254;SDS011;8235;52.198;9.904;2023-02-28T10:10:50;3.23;;;2.37;;
16254;SDS011;8235;52.198;9.904;2023-02-28T10:13:22;4.87;;;2.30;;
16254;SDS011;8235;52.198;9.904;2023-02-28T10:15:52;4.80;;;2.20;;
16254;SDS011;8235;52.198;9.904;2023-02-28T10:18:22;3.57;;;2.20;;
16254;SDS011;8235;52.198;9.904;2023-02-28T10:20:53;4.10;;;2.63;;
16254;SDS011;8235;52.198;9.904;2023-02-28T10:23:23;5.37;;;2.53;;
16254;SDS011;8235;52.198;9.904;2023-02-28T10:25:54;4.73;;;2.67;;
16254;SDS011;8235;52.198;9.904;2023-02-28T10:28:24;4.03;;;2.67;;
16254;SDS011;8235;52.198;9.904;2023-02-28T10:30:52;2.83;;;2.40;;
16254;SDS011;8235;52.198;9.904;2023-02-28T10:33:21;3.90;;;2.40;;
16254;SDS011;8235;52.198;9.904;2023-02-28T10:35:49;2.73;;;2.37;;
16254;SDS011;8235;52.198;9.904;2023-02-28T10:38:19;3.73;;;2.70;;
16254;SDS011;8235;52.198;9.904;2023-02-28T10:40:47;4.87;;;2.57;;
16254;SDS011;8235;52.198;9.904;2023-02-28T10:43:18;6.10;;;3.40;;
16254;SDS011;8235;52.198;9.904;2023-02-28T10:45:52;3.93;;;2.70;;
16254;SDS011;8235;52.198;9.904;2023-02-28T10:48:26;2.83;;;2.30;;
16254;SDS011;8235;52.198;9.904;2023-02-28T10:50:56;3.80;;;2.53;;
16254;SDS011;8235;52.198;9.904;2023-02-28T10:53:28;5.23;;;2.53;;
16254;SDS011;8235;52.198;9.904;2023-02-28T10:55:59;4.17;;;2.50;;
16254;SDS011;8235;52.198;9.904;2023-02-28T10:58:28;4.23;;;2.60;;
16254;SDS011;8235;52.198;9.904;2023-02-28T11:00:56;3.83;;;2.30;;
16254;SDS011;8235;52.198;9.904;2023-02-28T11:03:24;4.07;;;2.37;;
16254;SDS011;8235;52.198;9.904;2023-02-28T11:06:04;5.27;;;2.70;;
16254;SDS011;8235;52.198;9.904;2023-02-28T11:08:34;3.27;;;2.33;;
16254;SDS011;8235;52.198;9.904;2023-02-28T11:11:09;2.40;;;2.20;;
16254;SDS011;8235;52.198;9.904;2023-02-28T11:13:36;3.70;;;2.50;;
16254;SDS011;8235;52.198;9.904;2023-02-28T11:16:04;3.30;;;2.43;;
16254;SDS011;8235;52.198;9.904;2023-02-28T11:18:34;3.80;;;2.83;;
16254;SDS011;8235;52.198;9.904;2023-02-28T11:21:06;3.53;;;2.10;;
16254;SDS011;8235;52.198;9.904;2023-02-28T11:23:39;2.37;;;1.90;;
16254;SDS011;8235;52.198;9.904;2023-02-28T11:26:07;4.00;;;2.40;;
16254;SDS011;8235;52.198;9.904;2023-02-28T11:28:36;4.73;;;2.50;;
16254;SDS011;8235;52.198;9.904;2023-02-28T11:31:08;3.27;;;2.30;;
16254;SDS011;8235;52.198;9.904;2023-02-28T11:33:44;4.37;;;2.27;;
16254;SDS011;8235;52.198;9.904;2023-02-28T11:36:14;4.37;;;2.43;;
16254;SDS011;8235;52.198;9.904;2023-02-28T11:38:45;5.83;;;2.20;;
16254;SDS011;8235;52.198;9.904;2023-02-28T11:44:13;3.37;;;1.80;;
16254;SDS011;8235;52.198;9.904;2023-02-28T11:46:49;4.90;;;2.23;;
16254;SDS011;8235;52.198;9.904;2023-02-28T11:49:22;5.57;;;2.30;;
16254;SDS011;8235;52.198;9.904;2023-02-28T11:51:59;4.23;;;2.30;;
16254;SDS011;8235;52.198;9.904;2023-02-28T11:54:39;2.50;;;2.10;;
16254;SDS011;8235;52.198;9.904;2023-02-28T11:57:38;1.87;;;1.40;;
16254;SDS011;8235;52.198;9.904;2023-02-28T12:00:25;1.97;;;1.40;;
16254;SDS011;8235;52.198;9.904;2023-02-28T12:03:10;3.63;;;1.93;;
16254;SDS011;8235;52.198;9.904;2023-02-28T12:05:49;2.93;;;1.80;;
16254;SDS011;8235;52.198;9.904;2023-02-28T12:08:27;4.03;;;1.30;;
16254;SDS011;8235;52.198;9.904;2023-02-28T12:11:11;3.00;;;1.20;;
16254;SDS011;8235;52.198;9.904;2023-02-28T12:13:46;1.83;;;1.40;;
16254;SDS011;8235;52.198;9.904;2023-02-28T12:16:20;2.33;;;1.80;;
16254;SDS011;8235;52.198;9.904;2023-02-28T12:19:01;2.80;;;2.00;;
16254;SDS011;8235;52.198;9.904;2023-02-28T12:21:43;3.53;;;1.97;;
16254;SDS011;8235;52.198;9.904;2023-02-28T12:24:25;2.43;;;1.70;;
16254;SDS011;8235;52.198;9.904;2023-02-28T12:27:00;2.47;;;1.30;;
16254;SDS011;8235;52.198;9.904;2023-02-28T12:29:32;2.47;;;1.70;;
16254;SDS011;8235;52.198;9.904;2023-02-28T12:32:09;3.80;;;1.73;;
16254;SDS011;8235;52.198;9.904;2023-02-28T12:34:41;2.50;;;1.50;;
16254;SDS011;8235;52.198;9.904;2023-02-28T12:37:13;2.20;;;1.70;;
16254;SDS011;8235;52.198;9.904;2023-02-28T12:39:44;2.90;;;1.50;;
16254;SDS011;8235;52.198;9.904;2023-02-28T12:42:16;4.07;;;1.73;;
16254;SDS011;8235;52.198;9.904;2023-02-28T12:44:46;2.73;;;1.70;;
16254;SDS011;8235;52.198;9.904;2023-02-28T12:47:18;3.03;;;2.03;;
16254;SDS011;8235;52.198;9.904;2023-02-28T12:49:45;1.90;;;1.67;;
16254;SDS011;8235;52.198;9.904;2023-02-28T12:52:17;2.33;;;1.77;;
16254;SDS011;8235;52.198;9.904;2023-02-28T12:54:50;2.10;;;1.90;;
16254;SDS011;8235;52.198;9.904;2023-02-28T12:57:25;2.00;;;1.40;;
16254;SDS011;8235;52.198;9.904;2023-02-28T13:00:00;3.10;;;1.90;;
16254;SDS011;8235;52.198;9.904;2023-02-28T13:02:38;3.10;;;1.77;;
16254;SDS011;8235;52.198;9.904;2023-02-28T13:05:31;1.57;;;1.33;;
16254;SDS011;8235;52.198;9.904;2023-02-28T13:11:28;2.10;;;1.60;;
16254;SDS011;8235;52.198;9.904;2023-02-28T13:13:59;3.37;;;1.80;;
16254;SDS011;8235;52.198;9.904;2023-02-28T13:16:27;2.57;;;1.90;;
16254;SDS011;8235;52.198;9.904;2023-02-28T13:19:09;2.97;;;2.13;;
16254;SDS011;8235;52.198;9.904;2023-02-28T13:21:43;2.57;;;2.10;;
16254;SDS011;8235;52.198;9.904;2023-02-28T13:24:11;4.53;;;1.77;;
16254;SDS011;8235;52.198;9.904;2023-02-28T13:27:20;3.13;;;1.70;;
16254;SDS011;8235;52.198;9.904;2023-02-28T13:29:52;2.70;;;1.50;;
16254;SDS011;8235;52.198;9.904;2023-02-28T13:32:29;2.13;;;1.67;;
16254;SDS011;8235;52.198;9.904;2023-02-28T13:35:14;2.53;;;2.17;;
16254;SDS011;8235;52.198;9.904;2023-02-28T13:38:17;3.60;;;1.80;;
16254;SDS011;8235;52.198;9.904;2023-02-28T13:44:01;3.63;;;1.67;;
16254;SDS011;8235;52.198;9.904;2023-02-28T13:46:31;3.87;;;2.00;;
16254;SDS011;8235;52.198;9.904;2023-02-28T13:51:51;4.90;;;2.13;;
16254;SDS011;8235;52.198;9.904;2023-02-28T13:54:24;3.20;;;1.77;;
16254;SDS011;8235;52.198;9.904;2023-02-28T13:57:04;2.67;;;1.93;;
16254;SDS011;8235;52.198;9.904;2023-02-28T13:59:46;3.17;;;2.00;;
16254;SDS011;8235;52.198;9.904;2023-02-28T14:05:20;1.97;;;1.60;;
16254;SDS011;8235;52.198;9.904;2023-02-28T14:07:52;4.53;;;1.97;;
16254;SDS011;8235;52.198;9.904;2023-02-28T14:10:22;2.60;;;1.67;;
16254;SDS011;8235;52.198;9.904;2023-02-28T14:12:56;2.03;;;1.83;;
16254;SDS011;8235;52.198;9.904;2023-02-28T14:15:34;2.63;;;1.97;;
16254;SDS011;8235;52.198;9.904;2023-02-28T14:18:11;3.10;;;2.00;;
16254;SDS011;8235;52.198;9.904;2023-02-28T14:20:43;1.97;;;1.77;;
16254;SDS011;8235;52.198;9.904;2023-02-28T14:23:13;2.63;;;1.90;;
16254;SDS011;8235;52.198;9.904;2023-02-28T14:25:47;2.90;;;2.20;;
16254;SDS011;8235;52.198;9.904;2023-02-28T14:28:28;3.27;;;2.20;;
16254;SDS011;8235;52.198;9.904;2023-02-28T14:31:12;4.30;;;2.07;;
16254;SDS011;8235;52.198;9.904;2023-02-28T14:33:48;3.20;;;2.20;;
16254;SDS011;8235;52.198;9.904;2023-02-28T14:36:30;3.07;;;1.80;;
16254;SDS011;8235;52.198;9.904;2023-02-28T14:38:59;3.77;;;2.17;;
16254;SDS011;8235;52.198;9.904;2023-02-28T14:41:31;4.63;;;2.20;;
16254;SDS011;8235;52.198;9.904;2023-02-28T14:44:02;2.60;;;2.10;;
16254;SDS011;8235;52.198;9.904;2023-02-28T14:46:40;2.83;;;2.03;;
16254;SDS011;8235;52.198;9.904;2023-02-28T14:49:12;2.93;;;2.30;;
16254;SDS011;8235;52.198;9.904;2023-02-28T14:51:42;2.73;;;2.30;;
16254;SDS011;8235;52.198;9.904;2023-02-28T14:54:12;3.60;;;1.73;;
16254;SDS011;8235;52.198;9.904;2023-02-28T14:56:40;2.90;;;2.50;;
16254;SDS011;8235;52.198;9.904;2023-02-28T14:59:21;3.20;;;2.40;;
16254;SDS011;8235;52.198;9.904;2023-02-28T15:01:50;3.03;;;2.10;;
16254;SDS011;8235;52.198;9.904;2023-02-28T15:04:21;2.80;;;2.00;;
16254;SDS011;8235;52.198;9.904;2023-02-28T15:09:35;2.73;;;1.93;;
16254;SDS011;8235;52.198;9.904;2023-02-28T15:12:01;2.60;;;1.97;;
16254;SDS011;8235;52.198;9.904;2023-02-28T15:14:28;4.50;;;2.57;;
16254;SDS011;8235;52.198;9.904;2023-02-28T15:16:56;3.90;;;2.40;;
16254;SDS011;8235;52.198;9.904;2023-02-28T15:19:28;3.30;;;2.20;;
16254;SDS011;8235;52.198;9.904;2023-02-28T15:21:57;2.87;;;2.20;;
16254;SDS011;8235;52.198;9.904;2023-02-28T15:24:31;2.73;;;1.90;;
16254;SDS011;8235;52.198;9.904;2023-02-28T15:27:03;2.50;;;1.93;;
16254;SDS011;8235;52.198;9.904;2023-02-28T15:29:32;4.13;;;2.63;;
16254;SDS011;8235;52.198;9.904;2023-02-28T15:32:07;4.43;;;2.43;;
16254;SDS011;8235;52.198;9.904;2023-02-28T15:34:58;3.50;;;2.10;;
16254;SDS011;8235;52.198;9.904;2023-02-28T15:37:45;3.20;;;1.77;;
16254;SDS011;8235;52.198;9.904;2023-02-28T15:40:14;2.53;;;2.17;;
16254;SDS011;8235;52.198;9.904;2023-02-28T15:42:43;3.57;;;2.37;;
16254;SDS011;8235;52.198;9.904;2023-02-28T15:45:27;3.83;;;2.23;;
16254;SDS011;8235;52.198;9.904;2023-02-28T15:47:59;3.20;;;2.43;;
16254;SDS011;8235;52.198;9.904;2023-02-28T15:50:28;2.67;;;2.33;;